Boa Esperanca, Brazil
Current Conditions -  °F | °C
As of 5:00 PM on Friday 28 Nov 2014 (Local Time) from SBCA Reporting Station
Broken Clouds Broken Clouds  
Wind Chill: 82°   Ceiling: 3000
Heat Index: 84°   Visibility: 6mi
Dew Point: 64°   Wind: 14mph
Humidity: 54%   Direction: 10°N
Pressure: 29.94"   Gusts: NA
Location:  24.24°S, 52.79°W
Report Text: SBCA 281900Z 01012KT 9999 BKN030 FEW040TCU 28/18 Q1014
Loading
Personal Weather Stations






























Interactive Weather Map New forecast layout! Learn more

10-Day Weather Forecast

Advertisements
Track Severe Weather on mobile